Time;durP1;ratioP1;P1;durP2;ratioP2;P2;SDS_P1;SDS_P2;PMS_P1;PMS_P2;Temp;Humidity;BMP_temperature;BMP_pressure;BME280_temperature;BME280_humidity;BME280_pressure;Samples;Min_cycle;Max_cycle;Signal;HPM_P1;HPM_P2
2023/03/31 00:01:51;;;;;;;1.27;0.53;;;;;;;11.96;100.00;99456.72;5028919;28;20495;-54
2023/03/31 00:04:22;;;;;;;2.57;0.67;;;;;;;11.92;100.00;99443.59;5019696;28;20471;-54
2023/03/31 00:06:52;;;;;;;0.40;0.30;;;;;;;11.80;100.00;99453.06;5017910;28;20513;-53
2023/03/31 00:09:20;;;;;;;1.47;0.50;;;;;;;11.94;100.00;99452.41;5021214;28;20459;-53
2023/03/31 00:11:48;;;;;;;1.57;1.07;;;;;;;11.94;100.00;99463.06;5024472;28;21015;-54
2023/03/31 00:14:16;;;;;;;9.70;2.40;;;;;;;12.20;100.00;99469.78;5021087;28;20475;-54
2023/03/31 00:16:44;;;;;;;0.40;0.40;;;;;;;12.59;100.00;99462.50;5017155;28;20471;-54
2023/03/31 00:19:16;;;;;;;0.57;0.30;;;;;;;12.35;100.00;99453.94;5020213;28;20472;-54
2023/03/31 00:21:44;;;;;;;3.00;1.20;;;;;;;12.22;100.00;99458.13;5024405;28;20496;-54
2023/03/31 00:24:12;;;;;;;13.73;0.70;;;;;;;12.08;100.00;99448.16;5022777;28;20475;-54
2023/03/31 00:26:38;;;;;;;0.60;0.60;;;;;;;12.04;100.00;99443.03;5017287;28;20452;-54
2023/03/31 00:29:07;;;;;;;11.30;0.60;;;;;;;11.99;100.00;99434.41;5022550;28;20465;-54
2023/03/31 00:31:34;;;;;;;1.53;0.63;;;;;;;12.00;100.00;99421.00;5024792;28;20454;-53
2023/03/31 00:34:01;;;;;;;1.20;0.80;;;;;;;11.89;100.00;99422.44;5022698;28;20476;-54
2023/03/31 00:36:28;;;;;;;1.33;0.63;;;;;;;11.89;100.00;99419.78;5017090;28;20454;-54
2023/03/31 00:39:08;;;;;;;0.53;0.50;;;;;;;11.83;100.00;99408.50;5018253;28;20452;-54
2023/03/31 00:41:37;;;;;;;3.10;0.80;;;;;;;11.74;100.00;99405.38;5006309;28;21030;-54
2023/03/31 00:44:11;;;;;;;1.80;0.70;;;;;;;11.53;100.00;99394.81;5015279;28;20515;-54
2023/03/31 00:46:51;;;;;;;0.70;0.50;;;;;;;11.52;100.00;99389.56;5020425;28;20462;-54
2023/03/31 00:49:39;;;;;;;1.07;0.97;;;;;;;11.37;100.00;99377.81;5016970;28;20451;-54
2023/03/31 00:52:29;;;;;;;3.80;0.33;;;;;;;11.65;100.00;99381.84;5007474;28;20461;-54
2023/03/31 00:55:01;;;;;;;0.50;0.40;;;;;;;11.27;100.00;99377.41;5020602;28;20473;-53
2023/03/31 00:57:31;;;;;;;2.60;1.27;;;;;;;11.28;100.00;99367.63;5016553;28;21028;-54
2023/03/31 01:00:09;;;;;;;0.40;0.40;;;;;;;11.22;100.00;99368.75;5028158;28;20478;-54
2023/03/31 01:02:40;;;;;;;0.40;0.30;;;;;;;11.25;100.00;99362.47;5006080;28;20494;-54
2023/03/31 01:05:07;;;;;;;2.30;0.60;;;;;;;11.21;100.00;99351.06;5016564;28;20588;-53
2023/03/31 01:07:42;;;;;;;9.33;0.40;;;;;;;11.19;100.00;99357.41;5021417;28;20456;-54
2023/03/31 01:10:09;;;;;;;0.73;0.30;;;;;;;11.18;100.00;99351.22;5023586;28;20452;-54
2023/03/31 01:12:46;;;;;;;0.80;0.80;;;;;;;11.11;100.00;99343.59;5020360;28;20478;-53
2023/03/31 01:15:12;;;;;;;1.43;0.97;;;;;;;11.04;100.00;99348.31;5016289;28;20464;-53
2023/03/31 01:17:43;;;;;;;0.43;0.37;;;;;;;10.94;100.00;99337.25;5017752;28;20452;-53
2023/03/31 01:20:51;;;;;;;0.83;0.53;;;;;;;11.01;100.00;99336.97;5023411;28;20449;-53
2023/03/31 01:23:18;;;;;;;1.13;0.60;;;;;;;11.00;100.00;99322.81;5022810;28;20554;-53
2023/03/31 01:26:27;;;;;;;0.70;0.50;;;;;;;10.98;100.00;99316.72;5021643;28;20455;-53
2023/03/31 01:29:02;;;;;;;2.23;0.40;;;;;;;11.00;100.00;99314.84;5010490;28;20447;-54
2023/03/31 01:32:00;;;;;;;4.83;1.33;;;;;;;10.97;100.00;99310.53;5023094;28;20444;-53
2023/03/31 01:35:04;;;;;;;0.73;0.70;;;;;;;10.96;100.00;99308.81;5022865;28;20476;-54
2023/03/31 01:37:49;;;;;;;25.67;0.70;;;;;;;10.84;100.00;99297.88;5022836;28;20454;-53
2023/03/31 01:40:21;;;;;;;0.93;0.93;;;;;;;10.76;100.00;99290.22;5020871;28;20451;-53
2023/03/31 01:42:56;;;;;;;0.60;0.40;;;;;;;10.83;100.00;99293.50;5015969;28;20499;-53
2023/03/31 01:45:52;;;;;;;0.50;0.40;;;;;;;10.82;100.00;99287.28;5015573;28;20452;-53
2023/03/31 01:48:38;;;;;;;0.40;0.37;;;;;;;10.89;100.00;99278.09;5010654;28;20444;-53
2023/03/31 01:51:21;;;;;;;1.57;0.60;;;;;;;10.89;100.00;99279.91;5015047;28;20451;-53
2023/03/31 01:54:12;;;;;;;3.40;0.50;;;;;;;10.93;100.00;99270.84;5022452;28;20482;-53
2023/03/31 01:56:45;;;;;;;0.60;0.50;;;;;;;10.97;100.00;99261.81;5021384;28;20455;-54
2023/03/31 01:59:33;;;;;;;0.70;0.50;;;;;;;11.10;100.00;99259.41;5011223;28;21264;-53
2023/03/31 02:02:13;;;;;;;3.67;0.83;;;;;;;11.23;100.00;99244.59;5022331;28;20496;-53
2023/03/31 02:04:45;;;;;;;2.23;1.63;;;;;;;11.38;100.00;99248.34;5020694;28;20522;-53
2023/03/31 02:07:17;;;;;;;1.73;0.50;;;;;;;11.37;100.00;99243.91;5015545;28;20444;-53
2023/03/31 02:09:50;;;;;;;0.60;0.60;;;;;;;11.59;100.00;99236.63;5016233;28;20535;-53
2023/03/31 02:12:20;;;;;;;1.77;0.93;;;;;;;11.70;100.00;99233.44;5004410;28;20448;-54
2023/03/31 02:14:51;;;;;;;2.90;0.93;;;;;;;11.79;100.00;99233.00;5015516;28;20480;-53
2023/03/31 02:17:31;;;;;;;3.47;0.80;;;;;;;11.86;100.00;99234.41;5020139;28;20795;-53
2023/03/31 02:20:04;;;;;;;0.63;0.63;;;;;;;11.80;100.00;99226.75;5022328;28;21031;-54
2023/03/31 02:22:36;;;;;;;2.00;0.93;;;;;;;11.90;100.00;99216.47;5020349;28;21082;-54
2023/03/31 02:25:06;;;;;;;0.57;0.53;;;;;;;11.94;100.00;99218.91;5015605;28;20482;-54
2023/03/31 02:27:41;;;;;;;7.80;1.30;;;;;;;11.95;100.00;99219.78;5016006;28;20456;-53
2023/03/31 02:30:10;;;;;;;6.23;0.93;;;;;;;11.92;100.00;99215.44;5013750;28;20457;-53
2023/03/31 02:32:45;;;;;;;4.47;1.43;;;;;;;11.91;100.00;99210.19;5015638;28;20451;-54
2023/03/31 02:35:18;;;;;;;1.57;0.97;;;;;;;12.01;100.00;99200.81;5019799;28;20465;-54
2023/03/31 02:37:45;;;;;;;4.33;0.87;;;;;;;12.04;100.00;99188.19;5022199;28;20547;-53
2023/03/31 02:40:17;;;;;;;0.93;0.90;;;;;;;11.94;100.00;99183.44;5019329;28;20460;-54
2023/03/31 02:42:44;;;;;;;5.33;0.63;;;;;;;12.02;100.00;99175.88;5014956;28;20495;-54
2023/03/31 02:45:48;;;;;;;0.30;0.20;;;;;;;11.93;100.00;99163.94;5017580;28;20821;-54
2023/03/31 02:48:28;;;;;;;1.57;1.57;;;;;;;11.82;100.00;99150.31;5008891;28;20490;-54
2023/03/31 02:51:06;;;;;;;0.53;0.53;;;;;;;11.85;100.00;99132.38;5015768;28;20462;-54
2023/03/31 02:53:51;;;;;;;0.53;0.40;;;;;;;11.83;100.00;99120.94;5015645;28;20502;-54
2023/03/31 02:56:38;;;;;;;0.67;0.63;;;;;;;11.86;100.00;99099.47;5018661;28;20455;-54
2023/03/31 02:59:32;;;;;;;1.17;0.77;;;;;;;11.89;100.00;99102.91;5014654;28;20452;-54
2023/03/31 03:02:29;;;;;;;0.50;0.40;;;;;;;11.85;100.00;99105.75;5025491;28;20889;-54
2023/03/31 03:04:58;;;;;;;0.47;0.40;;;;;;;11.91;100.00;99101.03;5025678;28;20550;-53
2023/03/31 03:07:45;;;;;;;2.10;0.80;;;;;;;11.89;100.00;99105.56;5020188;28;20498;-54
2023/03/31 03:10:57;;;;;;;4.90;0.80;;;;;;;12.05;100.00;99091.34;5019044;28;20443;-54
2023/03/31 03:13:46;;;;;;;1.63;1.63;;;;;;;11.89;100.00;99066.50;5018655;28;20472;-54
2023/03/31 03:16:26;;;;;;;1.80;0.63;;;;;;;12.04;100.00;99064.81;5019162;28;20463;-53
2023/03/31 03:18:58;;;;;;;0.50;0.30;;;;;;;12.09;100.00;99065.44;5008696;28;20454;-54
2023/03/31 03:21:25;;;;;;;2.07;0.70;;;;;;;12.05;100.00;99059.38;5018430;28;20806;-54
2023/03/31 03:23:52;;;;;;;0.60;0.60;;;;;;;12.03;100.00;99047.97;5023067;28;20989;-54
2023/03/31 03:26:27;;;;;;;9.93;0.83;;;;;;;12.05;100.00;99051.41;5025375;28;20463;-54
2023/03/31 03:28:56;;;;;;;0.57;0.37;;;;;;;11.99;100.00;99062.41;5020759;28;20482;-54
2023/03/31 03:31:24;;;;;;;1.40;0.83;;;;;;;11.96;100.00;99059.03;5016127;28;20488;-54
2023/03/31 03:33:52;;;;;;;0.50;0.50;;;;;;;12.03;100.00;99060.41;5019362;28;20495;-54
2023/03/31 03:36:18;;;;;;;1.90;1.80;;;;;;;12.02;100.00;99034.72;5024965;28;20590;-54
2023/03/31 03:38:45;;;;;;;4.10;0.57;;;;;;;11.95;100.00;99018.25;5023710;28;20460;-54
2023/03/31 03:41:11;;;;;;;0.67;0.50;;;;;;;11.86;100.00;99011.59;5016875;28;20922;-53
2023/03/31 03:43:38;;;;;;;0.70;0.60;;;;;;;11.86;100.00;98997.44;5019878;28;20496;-54
2023/03/31 03:46:04;;;;;;;2.33;1.07;;;;;;;11.72;100.00;98997.28;5016869;28;20860;-53
2023/03/31 03:48:31;;;;;;;0.40;0.30;;;;;;;11.59;100.00;98986.44;5019335;28;20452;-53
2023/03/31 03:51:00;;;;;;;0.60;0.53;;;;;;;11.68;100.00;98990.41;5024423;28;20457;-54
2023/03/31 03:53:27;;;;;;;4.77;0.63;;;;;;;11.52;100.00;98983.25;4998749;28;20509;-53
2023/03/31 03:55:54;;;;;;;0.50;0.43;;;;;;;11.61;100.00;98984.56;5024741;28;20456;-53
2023/03/31 03:58:20;;;;;;;0.53;0.50;;;;;;;11.60;100.00;98984.63;5024519;28;20473;-54
2023/03/31 04:00:47;;;;;;;1.03;0.93;;;;;;;11.50;100.00;98987.78;5028815;28;20955;-54
2023/03/31 04:03:13;;;;;;;1.83;1.43;;;;;;;11.48;100.00;98980.81;5017627;28;21017;-53
2023/03/31 04:05:40;;;;;;;1.10;1.00;;;;;;;11.56;100.00;98990.13;5024173;28;20895;-54
2023/03/31 04:08:07;;;;;;;4.80;1.80;;;;;;;11.55;100.00;98988.41;5024095;28;20871;-54
2023/03/31 04:10:35;;;;;;;0.60;0.40;;;;;;;11.64;100.00;98976.41;5018017;28;20979;-53
2023/03/31 04:13:01;;;;;;;1.73;1.40;;;;;;;11.54;100.00;98973.41;5017906;28;20477;-54
2023/03/31 04:15:28;;;;;;;2.80;1.47;;;;;;;11.48;100.00;98963.06;5023667;28;20460;-54
2023/03/31 04:17:56;;;;;;;3.27;0.33;;;;;;;11.45;100.00;98957.03;5024465;28;20451;-54
2023/03/31 04:20:26;;;;;;;0.40;0.40;;;;;;;11.41;100.00;98950.19;5018709;28;20470;-54
2023/03/31 04:22:53;;;;;;;6.70;0.73;;;;;;;11.56;100.00;98955.53;5017090;28;20488;-55
2023/03/31 04:25:21;;;;;;;2.10;1.60;;;;;;;11.55;100.00;98964.47;5022736;28;20514;-54
2023/03/31 04:27:53;;;;;;;0.87;0.77;;;;;;;11.93;100.00;98955.38;5024189;28;20643;-54
2023/03/31 04:30:29;;;;;;;0.50;0.40;;;;;;;11.88;100.00;98973.38;5024714;28;20508;-55
2023/03/31 04:32:59;;;;;;;3.50;0.60;;;;;;;11.86;100.00;98971.66;5017092;28;20957;-55
2023/03/31 04:35:41;;;;;;;4.33;0.97;;;;;;;11.82;100.00;98958.63;5019456;28;20964;-55
2023/03/31 04:38:08;;;;;;;0.63;0.60;;;;;;;11.70;100.00;98949.47;5023610;28;20548;-54
2023/03/31 04:40:35;;;;;;;0.70;0.60;;;;;;;11.71;100.00;98953.84;5023929;28;20466;-54
2023/03/31 04:43:01;;;;;;;4.90;1.33;;;;;;;11.74;100.00;98956.31;5017505;28;20499;-54
2023/03/31 04:45:27;;;;;;;7.80;1.50;;;;;;;11.82;100.00;98967.47;5016840;28;20463;-55
2023/03/31 04:47:54;;;;;;;1.13;0.50;;;;;;;11.80;100.00;98958.72;5023085;28;20907;-54
2023/03/31 04:50:20;;;;;;;0.60;0.50;;;;;;;11.82;100.00;98961.28;5023628;28;20455;-55
2023/03/31 04:52:47;;;;;;;1.20;0.77;;;;;;;11.68;100.00;98959.34;5002651;28;21024;-55
2023/03/31 04:55:14;;;;;;;4.93;1.27;;;;;;;11.70;100.00;98959.25;5023575;28;20459;-54
2023/03/31 04:57:40;;;;;;;1.30;0.80;;;;;;;11.72;100.00;98958.22;5017990;28;20462;-54
2023/03/31 05:00:08;;;;;;;4.33;1.93;;;;;;;11.60;100.00;98948.22;5028204;28;20475;-54
2023/03/31 05:02:34;;;;;;;1.40;0.80;;;;;;;11.64;100.00;98949.78;5022274;28;20862;-54
2023/03/31 05:05:00;;;;;;;4.67;2.27;;;;;;;11.73;100.00;98937.78;5023330;28;20590;-54
2023/03/31 05:07:27;;;;;;;0.40;0.30;;;;;;;11.72;100.00;98936.91;5018336;28;20486;-54
2023/03/31 05:09:53;;;;;;;6.40;0.97;;;;;;;11.65;100.00;98926.69;5016723;28;20452;-54
2023/03/31 05:12:20;;;;;;;0.90;0.47;;;;;;;11.54;100.00;98914.00;5021481;28;20452;-54
2023/03/31 05:14:46;;;;;;;16.07;2.30;;;;;;;11.40;100.00;98898.78;5023359;28;20907;-52
2023/03/31 05:17:13;;;;;;;0.50;0.47;;;;;;;11.46;100.00;98887.78;5018922;28;20466;-52
2023/03/31 05:19:39;;;;;;;2.80;0.50;;;;;;;11.45;100.00;98880.75;5016467;28;20453;-51
2023/03/31 05:22:06;;;;;;;0.87;0.60;;;;;;;11.35;100.00;98874.19;5020749;28;20463;-52
2023/03/31 05:24:32;;;;;;;49.17;2.90;;;;;;;11.33;100.00;98864.59;5023146;28;20472;-52
2023/03/31 05:26:58;;;;;;;0.87;0.70;;;;;;;11.18;100.00;98860.97;5019295;28;20466;-51
2023/03/31 05:29:25;;;;;;;4.10;1.07;;;;;;;11.24;100.00;98861.50;5019681;28;20455;-51
2023/03/31 05:31:52;;;;;;;1.03;0.50;;;;;;;11.13;100.00;98855.91;5020511;28;20463;-51
2023/03/31 05:34:19;;;;;;;1.47;0.50;;;;;;;11.15;100.00;98840.72;5023401;28;20497;-51
2023/03/31 05:36:47;;;;;;;7.53;1.03;;;;;;;11.04;100.00;98821.81;5019776;28;21036;-53
2023/03/31 05:39:13;;;;;;;2.30;0.90;;;;;;;11.10;100.00;98807.31;5016108;28;20456;-50
2023/03/31 05:41:40;;;;;;;0.80;0.77;;;;;;;10.90;100.00;98805.75;5019650;28;20462;-52
2023/03/31 05:44:06;;;;;;;4.50;0.90;;;;;;;10.98;100.00;98799.09;5022545;28;20507;-50
2023/03/31 05:46:32;;;;;;;0.40;0.30;;;;;;;11.09;100.00;98790.50;5018960;28;20460;-52
2023/03/31 05:48:59;;;;;;;0.50;0.40;;;;;;;11.12;100.00;98782.38;5016283;28;20456;-51
2023/03/31 05:51:25;;;;;;;1.37;0.40;;;;;;;10.94;100.00;98770.94;5016472;28;20465;-51
2023/03/31 05:53:52;;;;;;;2.40;0.70;;;;;;;10.93;100.00;98763.03;5008718;28;20469;-51
2023/03/31 05:56:18;;;;;;;15.23;1.03;;;;;;;10.71;100.00;98750.09;5019887;28;20456;-52
2023/03/31 05:58:45;;;;;;;3.70;1.03;;;;;;;10.77;100.00;98743.56;5023122;28;20459;-50
2023/03/31 06:01:18;;;;;;;4.67;1.70;;;;;;;10.67;100.00;98721.94;5029340;28;20537;-52
2023/03/31 06:03:45;;;;;;;0.90;0.70;;;;;;;10.72;100.00;98717.25;5015728;28;20526;-50
2023/03/31 06:06:13;;;;;;;11.03;1.43;;;;;;;10.71;100.00;98709.38;5017019;28;20452;-49
2023/03/31 06:08:40;;;;;;;1.13;0.57;;;;;;;10.74;100.00;98699.41;5022696;28;20456;-50
2023/03/31 06:11:09;;;;;;;2.97;0.87;;;;;;;10.94;100.00;98711.59;5020448;28;20463;-51
2023/03/31 06:13:37;;;;;;;1.00;0.70;;;;;;;10.98;100.00;98708.69;5016139;28;20590;-51
2023/03/31 06:16:05;;;;;;;0.60;0.40;;;;;;;10.97;100.00;98691.03;5017177;28;20460;-50
2023/03/31 06:18:34;;;;;;;0.80;0.80;;;;;;;11.07;100.00;98674.53;5022513;28;20515;-50
2023/03/31 06:21:01;;;;;;;0.40;0.30;;;;;;;11.30;100.00;98700.69;5021806;28;20455;-51
2023/03/31 06:23:27;;;;;;;2.80;1.10;;;;;;;11.26;100.00;98688.53;5015617;28;21028;-50
2023/03/31 06:26:01;;;;;;;0.73;0.30;;;;;;;11.25;100.00;98678.84;5016624;28;20463;-51
2023/03/31 06:28:27;;;;;;;1.13;1.07;;;;;;;11.40;100.00;98682.41;5004251;28;20451;-51
2023/03/31 06:31:04;;;;;;;7.07;1.33;;;;;;;11.48;100.00;98683.66;5023656;28;20456;-52
2023/03/31 06:33:32;;;;;;;0.70;0.67;;;;;;;11.52;100.00;98676.38;5020697;28;20467;-52
2023/03/31 06:36:00;;;;;;;0.50;0.50;;;;;;;11.59;100.00;98675.06;5019239;28;20972;-51
2023/03/31 06:38:27;;;;;;;0.87;0.70;;;;;;;11.66;100.00;98673.78;5023508;28;20468;-52
2023/03/31 06:40:53;;;;;;;0.83;0.60;;;;;;;11.61;100.00;98674.97;5026841;28;20819;-51
2023/03/31 06:43:20;;;;;;;0.80;0.73;;;;;;;11.71;100.00;98669.03;5022758;28;20505;-51
2023/03/31 06:45:47;;;;;;;1.13;0.63;;;;;;;11.67;100.00;98658.66;5019250;28;20590;-51
2023/03/31 06:48:14;;;;;;;2.00;1.23;;;;;;;11.57;100.00;98671.66;5022971;28;20460;-52
2023/03/31 06:50:41;;;;;;;2.90;1.00;;;;;;;11.74;100.00;98670.63;5025675;28;20452;-52
2023/03/31 06:53:08;;;;;;;1.33;1.23;;;;;;;11.90;100.00;98671.47;5005215;28;20815;-52
2023/03/31 06:55:35;;;;;;;2.10;0.93;;;;;;;12.01;100.00;98703.63;5026136;28;20456;-52
2023/03/31 06:58:03;;;;;;;3.77;2.23;;;;;;;11.69;100.00;98739.28;5022994;28;20447;-51
2023/03/31 07:00:30;;;;;;;6.10;1.13;;;;;;;11.88;100.00;98662.72;5030272;28;20466;-52
2023/03/31 07:02:57;;;;;;;2.20;0.77;;;;;;;11.80;100.00;98671.19;5021124;28;20882;-52
2023/03/31 07:05:27;;;;;;;7.73;0.60;;;;;;;11.69;100.00;98694.88;5025526;28;20464;-52
2023/03/31 07:07:55;;;;;;;3.47;0.90;;;;;;;11.71;100.00;98708.09;5024296;28;20901;-52
2023/03/31 07:10:23;;;;;;;1.27;0.40;;;;;;;11.65;100.00;98704.00;5018706;28;20944;-52
2023/03/31 07:12:49;;;;;;;4.80;1.50;;;;;;;11.53;100.00;98699.38;5020316;28;20456;-52
2023/03/31 07:15:16;;;;;;;0.50;0.50;;;;;;;11.55;100.00;98718.78;5025422;28;20510;-52
2023/03/31 07:17:43;;;;;;;7.03;0.63;;;;;;;11.60;100.00;98719.34;5024185;28;20459;-52
2023/03/31 07:20:13;;;;;;;2.47;0.80;;;;;;;11.67;100.00;98715.41;5018862;28;20535;-52
2023/03/31 07:22:41;;;;;;;11.90;3.37;;;;;;;11.72;100.00;98704.47;5019016;28;20445;-52
2023/03/31 07:25:08;;;;;;;0.63;0.50;;;;;;;11.74;100.00;98698.13;5025521;28;20463;-53
2023/03/31 07:27:35;;;;;;;0.80;0.60;;;;;;;11.89;100.00;98691.06;5025701;28;20459;-52
2023/03/31 07:30:11;;;;;;;1.10;0.50;;;;;;;11.86;100.00;98677.94;5022267;28;20859;-52
2023/03/31 07:32:39;;;;;;;0.70;0.67;;;;;;;11.83;100.00;98670.13;5018414;28;20462;-52
2023/03/31 07:35:07;;;;;;;0.70;0.50;;;;;;;11.84;100.00;98669.19;5024059;28;20530;-53
2023/03/31 07:37:38;;;;;;;1.07;0.77;;;;;;;11.90;100.00;98667.94;5025331;28;20474;-52
2023/03/31 07:40:06;;;;;;;0.50;0.40;;;;;;;12.07;100.00;98676.66;5021138;28;20456;-52
2023/03/31 07:42:34;;;;;;;2.03;1.23;;;;;;;12.13;100.00;98676.28;5018261;28;20461;-53
2023/03/31 07:45:02;;;;;;;0.77;0.60;;;;;;;12.20;100.00;98684.75;5021171;28;21286;-53
2023/03/31 07:47:28;;;;;;;1.13;1.00;;;;;;;12.35;100.00;98683.81;5024931;28;20873;-53
2023/03/31 07:49:54;;;;;;;1.80;1.07;;;;;;;12.29;100.00;98688.66;5021828;28;20517;-52
2023/03/31 07:52:22;;;;;;;1.30;1.00;;;;;;;12.45;100.00;98694.75;5006912;28;20460;-52
2023/03/31 07:54:49;;;;;;;2.03;1.07;;;;;;;12.44;100.00;98688.56;5021849;28;20476;-52
2023/03/31 07:57:18;;;;;;;8.53;0.90;;;;;;;12.55;100.00;98698.56;5018006;28;20467;-53
2023/03/31 07:59:45;;;;;;;17.40;1.20;;;;;;;12.69;100.00;98703.03;5029933;28;20807;-52
2023/03/31 08:02:14;;;;;;;1.57;1.33;;;;;;;12.59;100.00;98710.72;5027260;28;21164;-53
2023/03/31 08:04:41;;;;;;;2.90;1.10;;;;;;;12.63;100.00;98706.09;5022555;28;20499;-52
2023/03/31 08:07:10;;;;;;;7.30;1.33;;;;;;;12.44;100.00;98701.88;5017914;28;20467;-52
2023/03/31 08:09:36;;;;;;;1.47;0.67;;;;;;;12.47;100.00;98682.19;5019281;28;20456;-53
2023/03/31 08:12:04;;;;;;;0.80;0.80;;;;;;;12.38;100.00;98686.28;5024120;28;21016;-54
2023/03/31 08:14:31;;;;;;;0.67;0.67;;;;;;;12.35;100.00;98675.81;5023359;28;20608;-52
2023/03/31 08:17:07;;;;;;;0.67;0.50;;;;;;;12.60;100.00;98680.47;5005531;28;20482;-54
2023/03/31 08:19:33;;;;;;;0.83;0.40;;;;;;;12.52;100.00;98673.91;5017961;28;20575;-52
2023/03/31 08:21:59;;;;;;;4.60;0.53;;;;;;;12.56;100.00;98670.09;5023789;28;20821;-52
2023/03/31 08:24:26;;;;;;;0.70;0.47;;;;;;;12.87;100.00;98674.34;5023780;28;20496;-52
2023/03/31 08:26:52;;;;;;;8.33;0.80;;;;;;;12.62;100.00;98675.91;5018558;28;20455;-52
2023/03/31 08:29:19;;;;;;;1.10;0.80;;;;;;;12.90;100.00;98661.69;5022087;28;21309;-53
2023/03/31 08:31:45;;;;;;;5.13;1.00;;;;;;;13.05;100.00;98659.84;5023333;28;20548;-52
2023/03/31 08:34:12;;;;;;;0.60;0.60;;;;;;;13.03;100.00;98661.75;5024113;28;20526;-52
2023/03/31 08:36:38;;;;;;;0.50;0.40;;;;;;;13.24;100.00;98649.69;5018353;28;21015;-53
2023/03/31 08:39:05;;;;;;;3.30;0.70;;;;;;;13.44;100.00;98637.72;5016935;28;20456;-52
2023/03/31 08:41:41;;;;;;;0.93;0.60;;;;;;;13.67;100.00;98624.59;5023162;28;20555;-52
2023/03/31 08:44:14;;;;;;;1.00;0.70;;;;;;;13.76;100.00;98624.00;5023808;28;20499;-52
2023/03/31 08:46:42;;;;;;;3.23;0.70;;;;;;;13.66;100.00;98637.09;5020993;28;20519;-52
2023/03/31 08:49:15;;;;;;;1.10;0.70;;;;;;;13.62;100.00;98636.47;5017453;28;20461;-52
2023/03/31 08:52:03;;;;;;;2.80;0.80;;;;;;;13.50;100.00;98641.78;5013105;28;20461;-52
2023/03/31 08:54:32;;;;;;;0.90;0.90;;;;;;;13.47;100.00;98642.00;5018031;28;20872;-53
2023/03/31 08:57:00;;;;;;;8.40;1.30;;;;;;;13.44;100.00;98642.19;5016515;28;20460;-53
2023/03/31 08:59:32;;;;;;;15.13;0.70;;;;;;;13.42;100.00;98646.75;5028172;28;20542;-52
2023/03/31 09:02:30;;;;;;;2.30;0.90;;;;;;;13.40;100.00;98643.34;5027518;28;20946;-52
2023/03/31 09:05:10;;;;;;;1.00;0.90;;;;;;;13.55;100.00;98648.50;5023857;28;20618;-51
2023/03/31 09:07:47;;;;;;;1.10;0.87;;;;;;;13.78;100.00;98652.31;5019256;28;20486;-52
2023/03/31 09:10:32;;;;;;;1.30;0.70;;;;;;;13.89;100.00;98646.22;5016593;28;20923;-52
2023/03/31 09:13:05;;;;;;;4.53;0.70;;;;;;;13.93;100.00;98655.75;5017079;28;20510;-52
2023/03/31 09:15:39;;;;;;;0.90;0.70;;;;;;;13.90;99.72;98656.81;5005059;28;20459;-54
2023/03/31 09:18:31;;;;;;;3.43;1.63;;;;;;;13.96;98.53;98646.66;5016396;28;20875;-51
2023/03/31 09:21:06;;;;;;;1.90;0.70;;;;;;;13.71;96.98;98642.16;5018141;28;20453;-51
2023/03/31 09:24:03;;;;;;;0.80;0.50;;;;;;;13.81;96.18;98644.06;5023288;28;20500;-53
2023/03/31 09:26:33;;;;;;;2.53;0.70;;;;;;;13.84;97.29;98630.53;5022109;28;20813;-52
2023/03/31 09:29:05;;;;;;;9.93;1.27;;;;;;;14.02;96.57;98620.38;5018160;28;20459;-53
2023/03/31 09:31:32;;;;;;;2.30;2.10;;;;;;;13.71;97.58;98615.44;5023092;28;20449;-55
2023/03/31 09:34:09;;;;;;;6.00;0.57;;;;;;;13.71;98.40;98612.78;5022350;28;20467;-52
2023/03/31 09:36:35;;;;;;;0.50;0.50;;;;;;;13.80;98.18;98599.63;5022360;28;20456;-52
2023/03/31 09:39:02;;;;;;;12.77;1.97;;;;;;;14.05;97.21;98589.91;5022768;28;20866;-52
2023/03/31 09:41:29;;;;;;;0.73;0.57;;;;;;;14.11;98.40;98589.47;5017254;28;20953;-52
2023/03/31 09:43:58;;;;;;;4.73;0.60;;;;;;;13.62;98.99;98584.88;5013567;28;20830;-52
2023/03/31 09:46:34;;;;;;;3.70;1.47;;;;;;;13.87;99.16;98584.91;5017730;28;20452;-52
2023/03/31 09:49:12;;;;;;;1.60;0.63;;;;;;;13.55;100.00;98591.59;5016251;28;20458;-54
2023/03/31 09:51:43;;;;;;;17.93;2.30;;;;;;;13.64;100.00;98610.50;5013052;28;20469;-54
2023/03/31 09:54:20;;;;;;;5.50;0.87;;;;;;;13.60;100.00;98617.03;5006832;28;20556;-53
2023/03/31 09:56:52;;;;;;;5.33;1.10;;;;;;;13.22;100.00;98619.59;5024595;28;20462;-53
2023/03/31 09:59:22;;;;;;;3.70;1.17;;;;;;;12.90;100.00;98628.81;5012473;28;20468;-52
2023/03/31 10:01:52;;;;;;;3.67;1.00;;;;;;;12.52;100.00;98626.78;5022556;28;20448;-52
2023/03/31 10:04:23;;;;;;;1.00;0.90;;;;;;;12.20;100.00;98628.81;5017803;28;20574;-52
2023/03/31 10:06:53;;;;;;;2.20;0.73;;;;;;;11.93;100.00;98642.03;5015955;28;20938;-52
2023/03/31 10:09:25;;;;;;;0.50;0.50;;;;;;;11.66;100.00;98647.16;5019250;28;20992;-52
2023/03/31 10:11:58;;;;;;;1.50;0.63;;;;;;;11.71;100.00;98638.88;5013332;28;20462;-52
2023/03/31 10:14:32;;;;;;;13.57;1.60;;;;;;;11.62;100.00;98629.63;5017507;28;20559;-52
2023/03/31 10:17:04;;;;;;;3.90;0.90;;;;;;;11.66;100.00;98617.88;5022288;28;20448;-52
2023/03/31 10:19:33;;;;;;;0.70;0.40;;;;;;;11.85;100.00;98607.84;5022553;28;20451;-51
2023/03/31 10:22:12;;;;;;;0.67;0.50;;;;;;;12.17;100.00;98605.00;5003775;28;20455;-53
2023/03/31 10:24:43;;;;;;;0.97;0.97;;;;;;;12.48;100.00;98600.44;5015828;28;20498;-52
2023/03/31 10:27:30;;;;;;;0.60;0.50;;;;;;;12.71;100.00;98597.13;5019375;28;20472;-52
2023/03/31 10:29:59;;;;;;;0.60;0.50;;;;;;;13.07;100.00;98579.72;5017521;28;20821;-53
2023/03/31 10:32:28;;;;;;;1.30;0.97;;;;;;;13.07;100.00;98569.88;5016063;28;20522;-52
2023/03/31 10:34:56;;;;;;;3.30;0.77;;;;;;;13.29;99.99;98559.53;5003031;28;20594;-52
2023/03/31 10:37:27;;;;;;;6.63;0.80;;;;;;;13.28;100.00;98554.28;5015637;28;20531;-52
2023/03/31 10:40:00;;;;;;;2.57;0.47;;;;;;;13.75;100.00;98558.19;5020915;28;20453;-52
2023/03/31 10:42:27;;;;;;;0.93;0.63;;;;;;;14.16;99.63;98557.97;5022397;28;20454;-52
2023/03/31 10:45:26;;;;;;;0.60;0.47;;;;;;;14.35;98.74;98549.47;5009165;28;20579;-52
2023/03/31 10:48:03;;;;;;;1.27;0.67;;;;;;;14.61;98.38;98536.91;5021225;28;20456;-51
2023/03/31 10:50:33;;;;;;;4.97;0.80;;;;;;;14.84;97.49;98527.22;5022447;28;20935;-51
2023/03/31 10:53:06;;;;;;;2.67;1.40;;;;;;;15.03;96.77;98525.72;4992875;28;20468;-51
2023/03/31 10:55:46;;;;;;;10.40;1.40;;;;;;;15.15;95.81;98528.44;5018141;28;20982;-52
2023/03/31 10:58:47;;;;;;;17.73;1.17;;;;;;;15.19;94.34;98517.38;5017709;28;20454;-53
2023/03/31 11:01:45;;;;;;;4.67;1.23;;;;;;;15.18;95.22;98520.16;5012550;28;20451;-53
2023/03/31 11:04:42;;;;;;;5.27;1.83;;;;;;;15.41;92.72;98524.63;5003901;28;20506;-52
2023/03/31 11:07:47;;;;;;;3.37;1.00;;;;;;;15.68;93.34;98516.31;5015031;28;20458;-53
2023/03/31 11:10:41;;;;;;;3.60;0.80;;;;;;;15.55;89.30;98519.06;5015422;28;20505;-51
2023/03/31 11:13:07;;;;;;;1.90;1.03;;;;;;;15.73;89.86;98518.63;5015633;28;20487;-52
2023/03/31 11:15:54;;;;;;;4.00;1.13;;;;;;;15.64;87.63;98520.22;5013573;28;20835;-51
2023/03/31 11:18:51;;;;;;;4.80;1.73;;;;;;;15.78;87.60;98528.03;5019895;28;20448;-51
2023/03/31 11:21:26;;;;;;;3.90;1.40;;;;;;;15.78;86.97;98513.78;5024418;28;20891;-52
2023/03/31 11:24:31;;;;;;;3.30;1.13;;;;;;;15.77;86.63;98533.50;5001891;28;20562;-53
2023/03/31 11:27:01;;;;;;;8.83;1.73;;;;;;;15.67;85.91;98526.19;5007824;28;20509;-53
2023/03/31 11:29:42;;;;;;;7.77;2.03;;;;;;;15.40;86.04;98526.44;5028713;28;20451;-51
2023/03/31 11:32:50;;;;;;;0.70;0.50;;;;;;;15.87;86.22;98529.97;5022059;28;20444;-51
2023/03/31 11:35:53;;;;;;;5.93;1.20;;;;;;;16.12;86.92;98526.22;5005248;28;20510;-51
2023/03/31 11:38:19;;;;;;;1.63;0.87;;;;;;;15.90;86.57;98535.13;4999916;28;20952;-51
2023/03/31 11:41:12;;;;;;;13.73;2.10;;;;;;;16.20;86.64;98526.47;5025291;28;21027;-51
2023/03/31 11:43:43;;;;;;;4.03;1.30;;;;;;;16.24;86.29;98524.38;5022874;28;20472;-53
2023/03/31 11:46:26;;;;;;;9.17;2.17;;;;;;;16.08;86.04;98531.94;5018210;28;20440;-51
2023/03/31 11:49:02;;;;;;;1.37;0.60;;;;;;;16.00;85.69;98519.13;5018568;28;20900;-51
2023/03/31 11:51:39;;;;;;;6.27;1.13;;;;;;;16.22;84.79;98524.50;5017746;28;20457;-51
2023/03/31 11:54:11;;;;;;;1.83;0.73;;;;;;;16.22;84.35;98545.09;5023082;28;21089;-52